sensor_id;sensor_type;location;lat;lon;timestamp;temperature;humidity
33739;DHT22;20063;51.730;11.110;2023-09-30T00:02:18;15.10;99.90
33739;DHT22;20063;51.730;11.110;2023-09-30T00:04:44;15.00;99.90
33739;DHT22;20063;51.730;11.110;2023-09-30T00:07:09;15.00;99.90
33739;DHT22;20063;51.730;11.110;2023-09-30T00:09:37;15.00;99.90
33739;DHT22;20063;51.730;11.110;2023-09-30T00:12:03;15.00;99.90
33739;DHT22;20063;51.730;11.110;2023-09-30T00:14:32;14.90;99.90
33739;DHT22;20063;51.730;11.110;2023-09-30T00:16:58;14.90;99.90
33739;DHT22;20063;51.730;11.110;2023-09-30T00:19:26;14.80;99.90
33739;DHT22;20063;51.730;11.110;2023-09-30T00:21:51;14.80;99.90
33739;DHT22;20063;51.730;11.110;2023-09-30T00:24:17;14.80;99.90
33739;DHT22;20063;51.730;11.110;2023-09-30T00:26:43;14.80;99.90
33739;DHT22;20063;51.730;11.110;2023-09-30T00:29:08;14.70;99.90
33739;DHT22;20063;51.730;11.110;2023-09-30T00:31:40;14.70;99.90
33739;DHT22;20063;51.730;11.110;2023-09-30T00:34:06;14.60;99.90
33739;DHT22;20063;51.730;11.110;2023-09-30T00:36:31;14.60;99.90
33739;DHT22;20063;51.730;11.110;2023-09-30T00:38:57;14.60;99.90
33739;DHT22;20063;51.730;11.110;2023-09-30T00:41:23;14.60;99.90
33739;DHT22;20063;51.730;11.110;2023-09-30T00:43:49;14.50;99.90
33739;DHT22;20063;51.730;11.110;2023-09-30T00:46:27;14.50;99.90
33739;DHT22;20063;51.730;11.110;2023-09-30T00:48:55;14.50;99.90
33739;DHT22;20063;51.730;11.110;2023-09-30T00:51:21;14.50;99.90
33739;DHT22;20063;51.730;11.110;2023-09-30T00:53:47;14.40;99.90
33739;DHT22;20063;51.730;11.110;2023-09-30T00:56:14;14.40;99.90
33739;DHT22;20063;51.730;11.110;2023-09-30T00:58:40;14.30;99.90
33739;DHT22;20063;51.730;11.110;2023-09-30T01:01:08;14.30;99.90
33739;DHT22;20063;51.730;11.110;2023-09-30T01:03:35;14.30;99.90
33739;DHT22;20063;51.730;11.110;2023-09-30T01:06:01;14.30;99.90
33739;DHT22;20063;51.730;11.110;2023-09-30T01:08:26;14.30;99.90
33739;DHT22;20063;51.730;11.110;2023-09-30T01:10:53;14.30;99.90
33739;DHT22;20063;51.730;11.110;2023-09-30T01:13:19;14.30;99.90
33739;DHT22;20063;51.730;11.110;2023-09-30T01:15:46;14.30;99.90
33739;DHT22;20063;51.730;11.110;2023-09-30T01:18:12;14.30;99.90
33739;DHT22;20063;51.730;11.110;2023-09-30T01:20:38;14.30;99.90
33739;DHT22;20063;51.730;11.110;2023-09-30T01:23:04;14.20;99.90
33739;DHT22;20063;51.730;11.110;2023-09-30T01:25:30;14.20;99.90
33739;DHT22;20063;51.730;11.110;2023-09-30T01:27:58;14.20;99.90
33739;DHT22;20063;51.730;11.110;2023-09-30T01:30:25;14.20;99.90
33739;DHT22;20063;51.730;11.110;2023-09-30T01:32:51;14.20;99.90
33739;DHT22;20063;51.730;11.110;2023-09-30T01:35:17;14.20;99.90
33739;DHT22;20063;51.730;11.110;2023-09-30T01:37:42;14.20;99.90
33739;DHT22;20063;51.730;11.110;2023-09-30T01:40:08;14.10;99.90
33739;DHT22;20063;51.730;11.110;2023-09-30T01:42:37;14.10;99.90
33739;DHT22;20063;51.730;11.110;2023-09-30T01:45:03;14.10;99.90
33739;DHT22;20063;51.730;11.110;2023-09-30T01:47:29;14.10;99.90
33739;DHT22;20063;51.730;11.110;2023-09-30T01:49:55;14.00;99.90
33739;DHT22;20063;51.730;11.110;2023-09-30T01:52:21;14.10;99.90
33739;DHT22;20063;51.730;11.110;2023-09-30T01:54:47;14.10;99.90
33739;DHT22;20063;51.730;11.110;2023-09-30T01:57:13;14.00;99.90
33739;DHT22;20063;51.730;11.110;2023-09-30T01:59:38;14.00;99.90
33739;DHT22;20063;51.730;11.110;2023-09-30T02:02:04;14.00;99.90
33739;DHT22;20063;51.730;11.110;2023-09-30T02:04:30;14.00;99.90
33739;DHT22;20063;51.730;11.110;2023-09-30T02:06:56;14.00;99.90
33739;DHT22;20063;51.730;11.110;2023-09-30T02:09:22;14.00;99.90
33739;DHT22;20063;51.730;11.110;2023-09-30T02:11:47;14.00;99.90
33739;DHT22;20063;51.730;11.110;2023-09-30T02:14:13;14.00;99.90
33739;DHT22;20063;51.730;11.110;2023-09-30T02:16:39;13.90;99.90
33739;DHT22;20063;51.730;11.110;2023-09-30T02:19:04;13.90;99.90
33739;DHT22;20063;51.730;11.110;2023-09-30T02:21:32;13.90;99.90
33739;DHT22;20063;51.730;11.110;2023-09-30T02:23:57;13.90;99.90
33739;DHT22;20063;51.730;11.110;2023-09-30T02:26:23;13.90;99.90
33739;DHT22;20063;51.730;11.110;2023-09-30T02:28:51;13.80;99.90
33739;DHT22;20063;51.730;11.110;2023-09-30T02:31:17;13.80;99.90
33739;DHT22;20063;51.730;11.110;2023-09-30T02:33:43;13.80;99.90
33739;DHT22;20063;51.730;11.110;2023-09-30T02:36:09;13.80;99.90
33739;DHT22;20063;51.730;11.110;2023-09-30T02:38:35;13.80;99.90
33739;DHT22;20063;51.730;11.110;2023-09-30T02:41:04;13.80;99.90
33739;DHT22;20063;51.730;11.110;2023-09-30T02:43:33;13.80;99.90
33739;DHT22;20063;51.730;11.110;2023-09-30T02:45:59;13.80;99.90
33739;DHT22;20063;51.730;11.110;2023-09-30T02:48:24;13.80;99.90
33739;DHT22;20063;51.730;11.110;2023-09-30T02:50:50;13.80;99.90
33739;DHT22;20063;51.730;11.110;2023-09-30T02:53:16;13.90;99.90
33739;DHT22;20063;51.730;11.110;2023-09-30T02:55:41;13.90;99.90
33739;DHT22;20063;51.730;11.110;2023-09-30T02:58:08;13.90;99.90
33739;DHT22;20063;51.730;11.110;2023-09-30T03:00:35;13.80;99.90
33739;DHT22;20063;51.730;11.110;2023-09-30T03:03:01;13.80;99.90
33739;DHT22;20063;51.730;11.110;2023-09-30T03:05:27;13.80;99.90
33739;DHT22;20063;51.730;11.110;2023-09-30T03:07:55;13.80;99.90
33739;DHT22;20063;51.730;11.110;2023-09-30T03:10:21;13.90;99.90
33739;DHT22;20063;51.730;11.110;2023-09-30T03:12:50;13.80;99.90
33739;DHT22;20063;51.730;11.110;2023-09-30T03:15:17;13.80;99.90
33739;DHT22;20063;51.730;11.110;2023-09-30T03:17:43;13.80;99.90
33739;DHT22;20063;51.730;11.110;2023-09-30T03:20:10;13.80;99.90
33739;DHT22;20063;51.730;11.110;2023-09-30T03:23:00;13.80;99.90
33739;DHT22;20063;51.730;11.110;2023-09-30T03:25:30;13.80;99.90
33739;DHT22;20063;51.730;11.110;2023-09-30T03:27:56;13.80;99.90
33739;DHT22;20063;51.730;11.110;2023-09-30T03:30:25;13.80;99.90
33739;DHT22;20063;51.730;11.110;2023-09-30T03:32:51;13.80;99.90
33739;DHT22;20063;51.730;11.110;2023-09-30T03:35:26;13.80;99.90
33739;DHT22;20063;51.730;11.110;2023-09-30T03:37:51;13.80;99.90
33739;DHT22;20063;51.730;11.110;2023-09-30T03:40:20;13.80;99.90
33739;DHT22;20063;51.730;11.110;2023-09-30T03:42:55;13.80;99.90
33739;DHT22;20063;51.730;11.110;2023-09-30T03:45:21;13.70;99.90
33739;DHT22;20063;51.730;11.110;2023-09-30T03:47:50;13.70;99.90
33739;DHT22;20063;51.730;11.110;2023-09-30T03:50:20;13.80;99.90
33739;DHT22;20063;51.730;11.110;2023-09-30T03:52:51;13.80;99.90
33739;DHT22;20063;51.730;11.110;2023-09-30T03:55:17;13.80;99.90
33739;DHT22;20063;51.730;11.110;2023-09-30T03:57:44;13.80;99.90
33739;DHT22;20063;51.730;11.110;2023-09-30T04:00:19;13.70;99.90
33739;DHT22;20063;51.730;11.110;2023-09-30T04:02:51;13.70;99.90
33739;DHT22;20063;51.730;11.110;2023-09-30T04:05:23;13.70;99.90
33739;DHT22;20063;51.730;11.110;2023-09-30T04:07:57;13.70;99.90
33739;DHT22;20063;51.730;11.110;2023-09-30T04:10:23;13.60;99.90
33739;DHT22;20063;51.730;11.110;2023-09-30T04:12:51;13.60;99.90
33739;DHT22;20063;51.730;11.110;2023-09-30T04:15:24;13.60;99.90
33739;DHT22;20063;51.730;11.110;2023-09-30T04:17:49;13.60;99.90
33739;DHT22;20063;51.730;11.110;2023-09-30T04:20:19;13.50;99.90
33739;DHT22;20063;51.730;11.110;2023-09-30T04:22:53;13.50;99.90
33739;DHT22;20063;51.730;11.110;2023-09-30T04:25:23;13.50;99.90
33739;DHT22;20063;51.730;11.110;2023-09-30T04:27:50;13.50;99.90
33739;DHT22;20063;51.730;11.110;2023-09-30T04:30:16;13.50;99.90
33739;DHT22;20063;51.730;11.110;2023-09-30T04:32:48;13.60;99.90
33739;DHT22;20063;51.730;11.110;2023-09-30T04:35:13;13.50;99.90
33739;DHT22;20063;51.730;11.110;2023-09-30T04:37:40;13.60;99.90
33739;DHT22;20063;51.730;11.110;2023-09-30T04:40:09;13.60;99.90
33739;DHT22;20063;51.730;11.110;2023-09-30T04:42:45;13.60;99.90
33739;DHT22;20063;51.730;11.110;2023-09-30T04:45:12;13.60;99.90
33739;DHT22;20063;51.730;11.110;2023-09-30T04:47:39;13.60;99.90
33739;DHT22;20063;51.730;11.110;2023-09-30T04:50:08;13.60;99.90
33739;DHT22;20063;51.730;11.110;2023-09-30T04:52:40;13.70;99.90
33739;DHT22;20063;51.730;11.110;2023-09-30T04:55:06;13.70;99.90
33739;DHT22;20063;51.730;11.110;2023-09-30T04:57:36;13.70;99.90
33739;DHT22;20063;51.730;11.110;2023-09-30T05:00:01;13.70;99.90
33739;DHT22;20063;51.730;11.110;2023-09-30T05:02:36;13.70;99.90
33739;DHT22;20063;51.730;11.110;2023-09-30T05:05:01;13.70;99.90
33739;DHT22;20063;51.730;11.110;2023-09-30T05:07:28;13.60;99.90
33739;DHT22;20063;51.730;11.110;2023-09-30T05:09:54;13.60;99.90
33739;DHT22;20063;51.730;11.110;2023-09-30T05:12:21;13.60;99.90
33739;DHT22;20063;51.730;11.110;2023-09-30T05:14:47;13.60;99.90
33739;DHT22;20063;51.730;11.110;2023-09-30T05:17:13;13.60;99.90
33739;DHT22;20063;51.730;11.110;2023-09-30T05:19:39;13.60;99.90
33739;DHT22;20063;51.730;11.110;2023-09-30T05:22:05;13.60;99.90
33739;DHT22;20063;51.730;11.110;2023-09-30T05:24:30;13.60;99.90
33739;DHT22;20063;51.730;11.110;2023-09-30T05:26:56;13.50;99.90
33739;DHT22;20063;51.730;11.110;2023-09-30T05:29:22;13.50;99.90
33739;DHT22;20063;51.730;11.110;2023-09-30T05:31:48;13.50;99.90
33739;DHT22;20063;51.730;11.110;2023-09-30T05:34:14;13.50;99.90
33739;DHT22;20063;51.730;11.110;2023-09-30T05:36:43;13.50;99.90
33739;DHT22;20063;51.730;11.110;2023-09-30T05:39:08;13.50;99.90
33739;DHT22;20063;51.730;11.110;2023-09-30T05:41:38;13.50;99.90
33739;DHT22;20063;51.730;11.110;2023-09-30T05:44:04;13.50;99.90
33739;DHT22;20063;51.730;11.110;2023-09-30T05:46:30;13.50;99.90
33739;DHT22;20063;51.730;11.110;2023-09-30T05:48:56;13.50;99.90
33739;DHT22;20063;51.730;11.110;2023-09-30T05:51:22;13.50;99.90
33739;DHT22;20063;51.730;11.110;2023-09-30T05:53:50;13.50;99.90
33739;DHT22;20063;51.730;11.110;2023-09-30T05:56:18;13.50;99.90
33739;DHT22;20063;51.730;11.110;2023-09-30T05:58:44;13.50;99.90
33739;DHT22;20063;51.730;11.110;2023-09-30T06:01:10;13.50;99.90
33739;DHT22;20063;51.730;11.110;2023-09-30T06:03:43;13.40;99.90
33739;DHT22;20063;51.730;11.110;2023-09-30T06:06:13;13.40;99.90
33739;DHT22;20063;51.730;11.110;2023-09-30T06:08:44;13.40;99.90
33739;DHT22;20063;51.730;11.110;2023-09-30T06:11:17;13.40;99.90
33739;DHT22;20063;51.730;11.110;2023-09-30T06:13:47;13.40;99.90
33739;DHT22;20063;51.730;11.110;2023-09-30T06:16:13;13.40;99.90
33739;DHT22;20063;51.730;11.110;2023-09-30T06:18:39;13.50;99.90
33739;DHT22;20063;51.730;11.110;2023-09-30T06:21:04;13.50;99.90
33739;DHT22;20063;51.730;11.110;2023-09-30T06:23:30;13.50;99.90
33739;DHT22;20063;51.730;11.110;2023-09-30T06:25:57;13.50;99.90
33739;DHT22;20063;51.730;11.110;2023-09-30T06:28:22;13.50;99.90
33739;DHT22;20063;51.730;11.110;2023-09-30T06:30:54;13.50;99.90
33739;DHT22;20063;51.730;11.110;2023-09-30T06:33:20;13.50;99.90
33739;DHT22;20063;51.730;11.110;2023-09-30T06:35:49;13.60;99.90
33739;DHT22;20063;51.730;11.110;2023-09-30T06:38:21;13.70;99.90
33739;DHT22;20063;51.730;11.110;2023-09-30T06:40:47;13.70;99.90
33739;DHT22;20063;51.730;11.110;2023-09-30T06:43:16;13.70;99.90
33739;DHT22;20063;51.730;11.110;2023-09-30T06:45:42;13.80;99.90
33739;DHT22;20063;51.730;11.110;2023-09-30T06:48:09;13.70;99.90
33739;DHT22;20063;51.730;11.110;2023-09-30T06:50:44;13.80;99.90
33739;DHT22;20063;51.730;11.110;2023-09-30T06:53:12;13.80;99.90
33739;DHT22;20063;51.730;11.110;2023-09-30T06:55:38;13.80;99.90
33739;DHT22;20063;51.730;11.110;2023-09-30T06:58:05;13.80;99.90
33739;DHT22;20063;51.730;11.110;2023-09-30T07:00:33;13.80;99.90
33739;DHT22;20063;51.730;11.110;2023-09-30T07:02:59;13.90;99.90
33739;DHT22;20063;51.730;11.110;2023-09-30T07:05:26;13.90;99.90
33739;DHT22;20063;51.730;11.110;2023-09-30T07:07:51;13.90;99.90
33739;DHT22;20063;51.730;11.110;2023-09-30T07:10:17;13.90;99.90
33739;DHT22;20063;51.730;11.110;2023-09-30T07:12:43;13.90;99.90
33739;DHT22;20063;51.730;11.110;2023-09-30T07:15:09;13.90;99.90
33739;DHT22;20063;51.730;11.110;2023-09-30T07:17:35;14.00;99.90
33739;DHT22;20063;51.730;11.110;2023-09-30T07:20:04;14.00;99.90
33739;DHT22;20063;51.730;11.110;2023-09-30T07:22:31;14.00;99.90
33739;DHT22;20063;51.730;11.110;2023-09-30T07:24:59;14.00;99.90
33739;DHT22;20063;51.730;11.110;2023-09-30T07:27:26;14.00;99.90
33739;DHT22;20063;51.730;11.110;2023-09-30T07:29:52;14.00;99.90
33739;DHT22;20063;51.730;11.110;2023-09-30T07:32:18;14.10;99.90
33739;DHT22;20063;51.730;11.110;2023-09-30T07:34:43;14.10;99.90
33739;DHT22;20063;51.730;11.110;2023-09-30T07:37:09;14.20;99.90
33739;DHT22;20063;51.730;11.110;2023-09-30T07:39:35;14.20;99.90
33739;DHT22;20063;51.730;11.110;2023-09-30T07:42:04;14.20;99.90
33739;DHT22;20063;51.730;11.110;2023-09-30T07:44:30;14.30;99.90
33739;DHT22;20063;51.730;11.110;2023-09-30T07:46:56;14.30;99.90
33739;DHT22;20063;51.730;11.110;2023-09-30T07:49:22;14.40;99.90
33739;DHT22;20063;51.730;11.110;2023-09-30T07:51:49;14.40;99.90
33739;DHT22;20063;51.730;11.110;2023-09-30T07:54:14;14.50;99.90
33739;DHT22;20063;51.730;11.110;2023-09-30T07:56:41;14.50;99.90
33739;DHT22;20063;51.730;11.110;2023-09-30T07:59:09;14.60;99.90
33739;DHT22;20063;51.730;11.110;2023-09-30T08:01:35;14.70;99.90
33739;DHT22;20063;51.730;11.110;2023-09-30T08:04:00;14.70;99.90
33739;DHT22;20063;51.730;11.110;2023-09-30T08:06:26;14.80;99.90
33739;DHT22;20063;51.730;11.110;2023-09-30T08:08:52;14.80;99.90
33739;DHT22;20063;51.730;11.110;2023-09-30T08:11:18;14.90;99.90
33739;DHT22;20063;51.730;11.110;2023-09-30T08:13:46;14.90;99.90
33739;DHT22;20063;51.730;11.110;2023-09-30T08:16:12;15.00;99.90
33739;DHT22;20063;51.730;11.110;2023-09-30T08:18:38;15.00;99.90
33739;DHT22;20063;51.730;11.110;2023-09-30T08:21:03;15.00;99.90
33739;DHT22;20063;51.730;11.110;2023-09-30T08:23:31;15.00;99.90
33739;DHT22;20063;51.730;11.110;2023-09-30T08:25:59;15.10;99.90
33739;DHT22;20063;51.730;11.110;2023-09-30T08:28:25;15.10;99.90
33739;DHT22;20063;51.730;11.110;2023-09-30T08:30:50;15.20;99.90
33739;DHT22;20063;51.730;11.110;2023-09-30T08:33:20;15.10;99.90
33739;DHT22;20063;51.730;11.110;2023-09-30T08:35:48;15.20;99.90
33739;DHT22;20063;51.730;11.110;2023-09-30T08:38:14;15.30;99.90
33739;DHT22;20063;51.730;11.110;2023-09-30T08:40:39;15.30;99.90
33739;DHT22;20063;51.730;11.110;2023-09-30T08:43:14;15.40;99.90
33739;DHT22;20063;51.730;11.110;2023-09-30T08:45:43;15.40;99.90
33739;DHT22;20063;51.730;11.110;2023-09-30T08:48:10;15.40;99.90
33739;DHT22;20063;51.730;11.110;2023-09-30T08:50:39;15.50;99.90
33739;DHT22;20063;51.730;11.110;2023-09-30T08:53:10;15.50;99.90
33739;DHT22;20063;51.730;11.110;2023-09-30T08:55:37;15.60;99.90
33739;DHT22;20063;51.730;11.110;2023-09-30T08:58:05;15.70;99.90
33739;DHT22;20063;51.730;11.110;2023-09-30T09:00:30;15.70;99.90
33739;DHT22;20063;51.730;11.110;2023-09-30T09:02:56;15.70;99.90
33739;DHT22;20063;51.730;11.110;2023-09-30T09:05:22;15.70;99.90
33739;DHT22;20063;51.730;11.110;2023-09-30T09:07:47;15.80;99.90
33739;DHT22;20063;51.730;11.110;2023-09-30T09:10:13;15.80;99.90
33739;DHT22;20063;51.730;11.110;2023-09-30T09:12:40;15.80;99.90
33739;DHT22;20063;51.730;11.110;2023-09-30T09:15:07;15.90;99.90
33739;DHT22;20063;51.730;11.110;2023-09-30T09:17:43;15.90;99.90
33739;DHT22;20063;51.730;11.110;2023-09-30T09:20:11;15.90;99.90
33739;DHT22;20063;51.730;11.110;2023-09-30T09:22:42;15.90;99.90
33739;DHT22;20063;51.730;11.110;2023-09-30T09:25:08;16.00;99.90
33739;DHT22;20063;51.730;11.110;2023-09-30T09:27:34;16.00;99.90
33739;DHT22;20063;51.730;11.110;2023-09-30T09:30:15;16.00;99.90
33739;DHT22;20063;51.730;11.110;2023-09-30T09:33:02;16.00;99.90
33739;DHT22;20063;51.730;11.110;2023-09-30T09:35:29;16.00;99.90
33739;DHT22;20063;51.730;11.110;2023-09-30T09:38:01;16.00;99.90
33739;DHT22;20063;51.730;11.110;2023-09-30T09:40:29;16.10;99.90
33739;DHT22;20063;51.730;11.110;2023-09-30T09:42:56;16.10;99.90
33739;DHT22;20063;51.730;11.110;2023-09-30T09:45:24;16.20;99.90
33739;DHT22;20063;51.730;11.110;2023-09-30T09:47:50;16.30;99.90
33739;DHT22;20063;51.730;11.110;2023-09-30T09:50:18;16.30;99.90
33739;DHT22;20063;51.730;11.110;2023-09-30T09:52:44;16.30;99.90
33739;DHT22;20063;51.730;11.110;2023-09-30T09:55:12;16.40;99.90
33739;DHT22;20063;51.730;11.110;2023-09-30T09:57:40;16.50;99.90
33739;DHT22;20063;51.730;11.110;2023-09-30T10:00:07;16.50;99.90
33739;DHT22;20063;51.730;11.110;2023-09-30T10:02:40;16.60;99.90
33739;DHT22;20063;51.730;11.110;2023-09-30T10:05:06;16.60;99.90
33739;DHT22;20063;51.730;11.110;2023-09-30T10:08:09;16.60;99.90
33739;DHT22;20063;51.730;11.110;2023-09-30T10:10:37;16.60;99.90
33739;DHT22;20063;51.730;11.110;2023-09-30T10:13:03;16.60;99.90
33739;DHT22;20063;51.730;11.110;2023-09-30T10:17:57;16.60;99.90
33739;DHT22;20063;51.730;11.110;2023-09-30T10:20:28;16.60;99.90
33739;DHT22;20063;51.730;11.110;2023-09-30T10:23:19;16.60;99.90
33739;DHT22;20063;51.730;11.110;2023-09-30T10:25:47;16.80;99.90
33739;DHT22;20063;51.730;11.110;2023-09-30T10:28:35;16.90;99.90
33739;DHT22;20063;51.730;11.110;2023-09-30T10:31:22;16.90;99.90
33739;DHT22;20063;51.730;11.110;2023-09-30T10:36:29;17.00;99.90
33739;DHT22;20063;51.730;11.110;2023-09-30T10:38:55;17.10;99.90
33739;DHT22;20063;51.730;11.110;2023-09-30T10:46:54;17.30;99.90
33739;DHT22;20063;51.730;11.110;2023-09-30T10:51:56;17.30;99.90
33739;DHT22;20063;51.730;11.110;2023-09-30T10:54:32;17.40;99.90
33739;DHT22;20063;51.730;11.110;2023-09-30T10:57:00;17.40;99.90
33739;DHT22;20063;51.730;11.110;2023-09-30T10:59:27;17.40;99.90
33739;DHT22;20063;51.730;11.110;2023-09-30T11:01:55;17.40;99.90
33739;DHT22;20063;51.730;11.110;2023-09-30T11:04:21;17.40;99.90
33739;DHT22;20063;51.730;11.110;2023-09-30T11:06:47;17.40;99.90
33739;DHT22;20063;51.730;11.110;2023-09-30T11:09:21;17.50;99.90
33739;DHT22;20063;51.730;11.110;2023-09-30T11:11:51;17.50;99.90
33739;DHT22;20063;51.730;11.110;2023-09-30T11:14:29;17.50;99.90
33739;DHT22;20063;51.730;11.110;2023-09-30T11:16:57;17.60;99.90
33739;DHT22;20063;51.730;11.110;2023-09-30T11:19:23;17.60;99.90
33739;DHT22;20063;51.730;11.110;2023-09-30T11:21:54;17.60;99.90
33739;DHT22;20063;51.730;11.110;2023-09-30T11:24:26;17.60;99.90
33739;DHT22;20063;51.730;11.110;2023-09-30T11:26:54;17.60;99.90
33739;DHT22;20063;51.730;11.110;2023-09-30T11:29:22;17.70;99.90
33739;DHT22;20063;51.730;11.110;2023-09-30T11:31:48;17.70;99.90
33739;DHT22;20063;51.730;11.110;2023-09-30T11:34:17;17.80;99.90
33739;DHT22;20063;51.730;11.110;2023-09-30T11:36:52;17.80;99.90
33739;DHT22;20063;51.730;11.110;2023-09-30T11:39:28;17.90;99.90
33739;DHT22;20063;51.730;11.110;2023-09-30T11:41:55;17.90;99.90
33739;DHT22;20063;51.730;11.110;2023-09-30T11:44:23;17.90;99.90
33739;DHT22;20063;51.730;11.110;2023-09-30T11:47:10;17.90;99.90
33739;DHT22;20063;51.730;11.110;2023-09-30T11:49:41;18.00;99.90
33739;DHT22;20063;51.730;11.110;2023-09-30T11:52:11;18.10;99.90
33739;DHT22;20063;51.730;11.110;2023-09-30T11:54:39;18.10;99.90
33739;DHT22;20063;51.730;11.110;2023-09-30T11:57:07;18.10;99.90
33739;DHT22;20063;51.730;11.110;2023-09-30T11:59:36;18.20;99.90
33739;DHT22;20063;51.730;11.110;2023-09-30T12:02:03;18.30;99.90
33739;DHT22;20063;51.730;11.110;2023-09-30T12:04:31;18.30;99.90
33739;DHT22;20063;51.730;11.110;2023-09-30T12:07:00;18.40;99.90
33739;DHT22;20063;51.730;11.110;2023-09-30T12:09:26;18.40;99.90
33739;DHT22;20063;51.730;11.110;2023-09-30T12:11:54;18.50;99.90
33739;DHT22;20063;51.730;11.110;2023-09-30T12:14:23;18.50;99.90
33739;DHT22;20063;51.730;11.110;2023-09-30T12:16:48;18.50;99.90
33739;DHT22;20063;51.730;11.110;2023-09-30T12:19:16;18.60;99.90
33739;DHT22;20063;51.730;11.110;2023-09-30T12:21:42;18.60;99.90
33739;DHT22;20063;51.730;11.110;2023-09-30T12:24:09;18.50;99.90
33739;DHT22;20063;51.730;11.110;2023-09-30T12:26:35;18.60;99.90
33739;DHT22;20063;51.730;11.110;2023-09-30T12:29:03;18.70;99.90
33739;DHT22;20063;51.730;11.110;2023-09-30T12:31:31;18.80;99.90
33739;DHT22;20063;51.730;11.110;2023-09-30T12:33:58;18.90;99.90
33739;DHT22;20063;51.730;11.110;2023-09-30T12:36:25;18.70;99.90
33739;DHT22;20063;51.730;11.110;2023-09-30T12:38:51;18.70;99.90
33739;DHT22;20063;51.730;11.110;2023-09-30T12:41:16;18.70;99.90
33739;DHT22;20063;51.730;11.110;2023-09-30T12:43:44;18.70;99.90
33739;DHT22;20063;51.730;11.110;2023-09-30T12:46:11;18.80;99.90
33739;DHT22;20063;51.730;11.110;2023-09-30T12:48:39;18.80;99.90
33739;DHT22;20063;51.730;11.110;2023-09-30T12:51:05;18.80;99.90
33739;DHT22;20063;51.730;11.110;2023-09-30T12:53:33;18.90;99.90
33739;DHT22;20063;51.730;11.110;2023-09-30T12:55:59;19.10;99.90
33739;DHT22;20063;51.730;11.110;2023-09-30T12:58:25;19.10;99.90
33739;DHT22;20063;51.730;11.110;2023-09-30T13:00:56;19.10;99.90
33739;DHT22;20063;51.730;11.110;2023-09-30T13:03:22;19.00;99.90
33739;DHT22;20063;51.730;11.110;2023-09-30T13:05:48;19.10;99.90
33739;DHT22;20063;51.730;11.110;2023-09-30T13:08:14;19.00;99.90
33739;DHT22;20063;51.730;11.110;2023-09-30T13:10:39;19.00;99.90
33739;DHT22;20063;51.730;11.110;2023-09-30T13:13:05;19.00;99.90
33739;DHT22;20063;51.730;11.110;2023-09-30T13:15:30;19.00;99.90
33739;DHT22;20063;51.730;11.110;2023-09-30T13:17:56;19.00;99.90
33739;DHT22;20063;51.730;11.110;2023-09-30T13:20:22;19.00;99.90
33739;DHT22;20063;51.730;11.110;2023-09-30T13:22:50;19.10;99.90
33739;DHT22;20063;51.730;11.110;2023-09-30T13:25:15;19.20;99.90
33739;DHT22;20063;51.730;11.110;2023-09-30T13:27:42;19.20;99.90
33739;DHT22;20063;51.730;11.110;2023-09-30T13:30:08;19.20;99.90
33739;DHT22;20063;51.730;11.110;2023-09-30T13:32:34;19.20;99.90
33739;DHT22;20063;51.730;11.110;2023-09-30T13:35:06;19.20;99.90
33739;DHT22;20063;51.730;11.110;2023-09-30T13:37:33;19.10;99.90
33739;DHT22;20063;51.730;11.110;2023-09-30T13:40:00;19.20;99.90
33739;DHT22;20063;51.730;11.110;2023-09-30T13:42:26;19.30;99.90
33739;DHT22;20063;51.730;11.110;2023-09-30T13:44:52;19.40;99.90
33739;DHT22;20063;51.730;11.110;2023-09-30T13:47:18;19.40;99.90
33739;DHT22;20063;51.730;11.110;2023-09-30T13:49:44;19.40;99.90
33739;DHT22;20063;51.730;11.110;2023-09-30T13:52:09;19.30;99.90
33739;DHT22;20063;51.730;11.110;2023-09-30T13:54:35;19.30;99.90
33739;DHT22;20063;51.730;11.110;2023-09-30T13:57:01;19.30;99.90
33739;DHT22;20063;51.730;11.110;2023-09-30T13:59:26;19.30;99.90
33739;DHT22;20063;51.730;11.110;2023-09-30T14:01:53;19.30;99.90
33739;DHT22;20063;51.730;11.110;2023-09-30T14:04:19;19.30;99.90
33739;DHT22;20063;51.730;11.110;2023-09-30T14:06:45;19.40;99.90
33739;DHT22;20063;51.730;11.110;2023-09-30T14:09:11;19.40;99.90
33739;DHT22;20063;51.730;11.110;2023-09-30T14:11:43;19.40;99.90
33739;DHT22;20063;51.730;11.110;2023-09-30T14:14:09;19.30;99.90
33739;DHT22;20063;51.730;11.110;2023-09-30T14:16:35;19.40;99.90
33739;DHT22;20063;51.730;11.110;2023-09-30T14:19:02;19.40;99.90
33739;DHT22;20063;51.730;11.110;2023-09-30T14:21:29;19.50;99.90
33739;DHT22;20063;51.730;11.110;2023-09-30T14:23:54;19.50;99.90
33739;DHT22;20063;51.730;11.110;2023-09-30T14:26:20;19.50;99.90
33739;DHT22;20063;51.730;11.110;2023-09-30T14:28:53;19.40;99.90
33739;DHT22;20063;51.730;11.110;2023-09-30T14:31:19;19.40;99.90
33739;DHT22;20063;51.730;11.110;2023-09-30T14:33:45;19.50;99.90
33739;DHT22;20063;51.730;11.110;2023-09-30T14:36:10;19.50;99.90
33739;DHT22;20063;51.730;11.110;2023-09-30T14:38:36;19.40;99.90
33739;DHT22;20063;51.730;11.110;2023-09-30T14:41:06;19.50;99.90
33739;DHT22;20063;51.730;11.110;2023-09-30T14:43:33;19.50;99.90
33739;DHT22;20063;51.730;11.110;2023-09-30T14:46:01;19.50;99.90
33739;DHT22;20063;51.730;11.110;2023-09-30T14:48:28;19.50;99.90
33739;DHT22;20063;51.730;11.110;2023-09-30T14:50:53;19.40;99.90
33739;DHT22;20063;51.730;11.110;2023-09-30T14:53:19;19.20;99.90
33739;DHT22;20063;51.730;11.110;2023-09-30T14:55:45;19.00;99.90
33739;DHT22;20063;51.730;11.110;2023-09-30T14:58:11;19.00;99.90
33739;DHT22;20063;51.730;11.110;2023-09-30T15:00:39;18.90;99.90
33739;DHT22;20063;51.730;11.110;2023-09-30T15:03:05;18.90;99.90
33739;DHT22;20063;51.730;11.110;2023-09-30T15:05:31;18.90;99.90
33739;DHT22;20063;51.730;11.110;2023-09-30T15:07:57;18.90;99.90
33739;DHT22;20063;51.730;11.110;2023-09-30T15:10:25;18.90;99.90
33739;DHT22;20063;51.730;11.110;2023-09-30T15:12:50;18.90;99.90
33739;DHT22;20063;51.730;11.110;2023-09-30T15:15:16;19.00;99.90
33739;DHT22;20063;51.730;11.110;2023-09-30T15:17:45;19.00;99.90
33739;DHT22;20063;51.730;11.110;2023-09-30T15:20:11;19.00;99.90
33739;DHT22;20063;51.730;11.110;2023-09-30T15:22:39;19.00;99.90
33739;DHT22;20063;51.730;11.110;2023-09-30T15:25:07;19.00;99.90
33739;DHT22;20063;51.730;11.110;2023-09-30T15:27:33;19.00;99.90
33739;DHT22;20063;51.730;11.110;2023-09-30T15:29:59;18.90;99.90
33739;DHT22;20063;51.730;11.110;2023-09-30T15:32:24;18.90;99.90